Main page
METAR-TAF:

METAR-TAF

Airports :

Sabadell Airport

Sabadell, Spain

latitude: 41-31N, longitude: 002-06E, elevation: 250 m

Current weather observation

The report was made 36 minutes ago, at 08:30 UTC
Wind 3 kt from the West/Southwest, varying between South/Southeast and West/Northwest
Temperature 26°C
Humidity 54%
Pressure 1019 hPa
Visibility 10 km or more
Few clouds at a height of 3000 ft

METAR: LELL 150830Z 25003KT 160V290 9999 FEW030 26/16 Q1019

Time: 11:06 (09:06 UTC)

Forecast

The report was made 1 hour and 6 minutes ago, at 08:00 UTC
Forecast valid from 15 at 09 UTC to 16 at 09 UTC
Wind 3 kt from variable directions
Visibility 10 km or more
Scattered clouds at a height of 3000 ft
Becoming
from 15 at 10 UTC to 15 at 12 UTC
Wind 10 kt from the South/Southeast
Becoming
from 15 at 18 UTC to 15 at 20 UTC
Wind 3 kt from variable directions

TAF: LELL 150800Z 1509/1609 VRB03KT 9999 SCT030 TX29/1513Z TN19/1605Z BECMG 1510/1512 16010KT BECMG 1518/1520 VRB03KT

Weather observations and forecasts of more than 4000 airports (METAR and TAF reports).

The available stations are represented by yellow and red dots on the map.

Hover mouse over dot to see the name of the station.

Then click to see weather observations and forecasts.

To change the map : click on the green buttons with a black cross to zoom in, on the green button with a dash to zoom out, or on the green arrows for adjacent maps.


METAR-TAF: